createdAt,value
2018-11-05T00:00:50.300Z,101733.62
2018-11-05T00:03:18.087Z,101738.97
2018-11-05T00:05:45.618Z,101724.39
2018-11-05T00:08:13.103Z,101730.13
2018-11-05T00:10:40.853Z,101717.80
2018-11-05T00:13:08.308Z,101719.13
2018-11-05T00:15:35.776Z,101715.59
2018-11-05T00:18:03.737Z,101720.51
2018-11-05T00:20:34.081Z,101717.10
2018-11-05T00:23:01.597Z,101707.43
2018-11-05T00:25:29.514Z,101707.03
2018-11-05T00:27:57.054Z,101704.82
2018-11-05T00:30:24.515Z,101715.91
2018-11-05T00:32:52.327Z,101718.08
2018-11-05T00:35:19.784Z,101717.63
2018-11-05T00:37:47.248Z,101714.58
2018-11-05T00:40:15.955Z,101719.00
2018-11-05T00:42:44.173Z,101725.68
2018-11-05T00:45:12.208Z,101725.32
2018-11-05T00:47:40.246Z,101720.46
2018-11-05T00:50:09.747Z,101722.28
2018-11-05T00:52:37.469Z,101713.97
2018-11-05T00:55:05.238Z,101716.22
2018-11-05T00:57:32.850Z,101722.89
2018-11-05T01:00:00.678Z,101722.45
2018-11-05T01:02:28.541Z,101719.89
2018-11-05T01:04:55.988Z,101702.30
2018-11-05T01:07:23.584Z,101712.02
2018-11-05T01:09:51.373Z,101697.87
2018-11-05T01:12:18.812Z,101702.70
2018-11-05T01:14:46.294Z,101696.95
2018-11-05T01:17:14.027Z,101697.40
2018-11-05T01:19:41.459Z,101696.55
2018-11-05T01:22:08.948Z,101692.66
2018-11-05T01:24:36.791Z,101701.59
2018-11-05T01:27:04.326Z,101699.91
2018-11-05T01:29:31.781Z,101703.45
2018-11-05T01:31:59.843Z,101703.05
2018-11-05T01:34:27.384Z,101702.13
2018-11-05T01:36:54.859Z,101707.47
2018-11-05T01:39:22.864Z,101705.26
2018-11-05T01:42:21.146Z,101696.02
2018-11-05T01:44:49.073Z,101686.79
2018-11-05T01:47:16.537Z,101696.47
2018-11-05T01:49:44.145Z,101694.27
2018-11-05T01:52:12.258Z,101694.70
2018-11-05T01:54:39.722Z,101689.80
2018-11-05T01:57:07.206Z,101649.95
2018-11-05T01:59:34.974Z,101692.45
2018-11-05T02:02:02.409Z,101693.73
2018-11-05T02:04:29.888Z,101697.70
2018-11-05T02:06:57.578Z,101696.88
2018-11-05T02:09:25.181Z,101698.23
2018-11-05T02:11:52.715Z,101695.59
2018-11-05T02:14:20.716Z,101686.31
2018-11-05T02:16:48.194Z,101688.07
2018-11-05T02:19:15.669Z,101694.27
2018-11-05T02:21:43.365Z,101681.02
2018-11-05T02:24:10.868Z,101678.88
2018-11-05T02:26:38.342Z,101686.40
2018-11-05T02:29:06.155Z,101687.72
2018-11-05T02:31:33.641Z,101671.83
2018-11-05T02:34:01.078Z,101674.95
2018-11-05T02:36:28.929Z,101684.27
2018-11-05T02:38:56.408Z,101686.92
2018-11-05T02:41:23.925Z,101686.00
2018-11-05T02:43:51.978Z,101690.42
2018-11-05T02:46:19.467Z,101688.24
2018-11-05T02:48:46.898Z,101686.08
2018-11-05T02:51:14.837Z,101691.38
2018-11-05T02:53:42.343Z,101691.38
2018-11-05T02:56:09.929Z,101697.56
2018-11-05T02:58:37.879Z,101705.95
2018-11-05T03:01:05.670Z,101699.33
2018-11-05T03:03:33.167Z,101635.76
2018-11-05T03:06:00.962Z,101697.09
2018-11-05T03:08:28.408Z,101692.70
2018-11-05T03:10:55.928Z,101689.66
2018-11-05T03:13:23.812Z,101694.95
2018-11-05T03:15:51.245Z,101693.67
2018-11-05T03:18:18.712Z,101690.55
2018-11-05T03:20:46.628Z,101697.65
2018-11-05T03:23:14.046Z,101691.47
2018-11-05T03:25:41.516Z,101698.97
2018-11-05T03:28:09.393Z,101691.47
2018-11-05T03:30:36.907Z,101696.81
2018-11-05T03:33:04.855Z,101703.48
2018-11-05T03:35:32.648Z,101709.22
2018-11-05T03:38:00.085Z,101702.64
2018-11-05T03:40:27.517Z,101701.75
2018-11-05T03:42:55.457Z,101709.78
2018-11-05T03:45:22.906Z,101714.64
2018-11-05T03:47:50.318Z,101718.22
2018-11-05T03:50:18.756Z,101717.38
2018-11-05T03:52:46.666Z,101715.22
2018-11-05T03:55:15.116Z,101721.34
2018-11-05T03:57:43.066Z,101713.41
2018-11-05T04:00:12.052Z,101711.23
2018-11-05T04:02:39.565Z,101711.63
2018-11-05T04:05:07.674Z,101709.91
2018-11-05T04:07:35.173Z,101705.54
2018-11-05T04:10:02.685Z,101708.67
2018-11-05T04:12:30.479Z,101703.85
2018-11-05T04:14:57.876Z,101703.41
2018-11-05T04:17:25.410Z,101705.22
2018-11-05T04:19:53.342Z,101696.88
2018-11-05T04:22:20.823Z,101691.17
2018-11-05T04:24:48.311Z,101699.08
2018-11-05T04:27:16.033Z,101697.36
2018-11-05T04:29:43.531Z,101684.16
2018-11-05T04:32:10.940Z,101690.77
2018-11-05T04:34:39.008Z,101688.56
2018-11-05T04:37:06.529Z,101690.38
2018-11-05T04:39:33.957Z,101684.67
2018-11-05T04:42:01.870Z,101685.08
2018-11-05T04:44:29.312Z,101686.88
2018-11-05T04:46:56.726Z,101683.75
2018-11-05T04:49:24.434Z,101689.05
2018-11-05T04:51:51.864Z,101687.73
2018-11-05T04:54:19.326Z,101685.95
2018-11-05T04:56:47.213Z,101686.84
2018-11-05T04:59:14.699Z,101682.43
2018-11-05T05:01:42.133Z,101690.81
2018-11-05T05:04:09.990Z,101683.71
2018-11-05T05:06:37.407Z,101677.17
2018-11-05T05:09:08.036Z,101685.13
2018-11-05T05:11:35.946Z,101685.08
2018-11-05T05:14:03.398Z,101687.33
2018-11-05T05:16:30.866Z,101675.41
2018-11-05T05:18:58.756Z,101673.24
2018-11-05T05:21:26.267Z,101665.30
2018-11-05T05:23:53.771Z,101667.55
2018-11-05T05:26:21.674Z,101675.89
2018-11-05T05:28:49.120Z,101675.94
2018-11-05T05:31:16.572Z,101670.23
2018-11-05T05:33:44.506Z,101676.86
2018-11-05T05:36:12.005Z,101680.42
2018-11-05T05:38:39.533Z,101677.81
2018-11-05T05:41:07.396Z,101671.28
2018-11-05T05:43:34.960Z,101676.98
2018-11-05T05:46:02.514Z,101675.66
2018-11-05T05:48:30.240Z,101680.11
2018-11-05T05:50:57.767Z,101680.15
2018-11-05T05:53:25.222Z,101676.66
2018-11-05T05:55:53.075Z,101684.59
2018-11-05T05:58:20.530Z,101675.33
2018-11-05T06:00:47.942Z,101681.95
2018-11-05T06:03:16.063Z,101674.86
2018-11-05T06:05:43.482Z,101681.03
2018-11-05T06:08:10.913Z,101690.70
2018-11-05T06:10:38.540Z,101691.18
2018-11-05T06:13:06.042Z,101695.55
2018-11-05T06:15:33.510Z,101703.50
2018-11-05T06:18:01.197Z,101702.22
2018-11-05T06:20:28.613Z,101702.26
2018-11-05T06:22:56.133Z,101702.26
2018-11-05T06:25:23.720Z,101716.38
2018-11-05T06:27:51.250Z,101720.80
2018-11-05T06:30:19.958Z,101721.20
2018-11-05T06:32:48.400Z,101726.57
2018-11-05T06:35:15.963Z,101724.41
2018-11-05T06:37:43.333Z,101731.91
2018-11-05T06:40:13.078Z,101741.61
2018-11-05T06:42:40.994Z,101745.98
2018-11-05T06:45:10.899Z,101742.02
2018-11-05T06:47:39.509Z,101735.39
2018-11-05T06:50:09.420Z,101743.78
2018-11-05T06:52:36.967Z,101753.09
2018-11-05T06:55:05.244Z,101758.78
2018-11-05T06:57:32.708Z,101756.17
2018-11-05T07:00:00.213Z,101769.83
2018-11-05T07:02:28.299Z,101773.83
2018-11-05T07:04:55.738Z,101777.32
2018-11-05T07:07:23.172Z,101772.47
2018-11-05T07:09:50.761Z,101783.06
2018-11-05T07:12:18.240Z,101780.41
2018-11-05T07:14:45.741Z,101777.28
2018-11-05T07:17:13.365Z,101772.84
2018-11-05T07:19:40.803Z,101776.03
2018-11-05T07:22:08.338Z,101784.42
2018-11-05T07:24:36.164Z,101778.72
2018-11-05T07:27:03.768Z,101788.44
2018-11-05T07:29:31.272Z,101781.85
2018-11-05T07:31:58.969Z,101784.94
2018-11-05T07:34:26.538Z,101784.09
2018-11-05T07:36:53.918Z,101782.37
2018-11-05T07:39:21.846Z,101782.37
2018-11-05T07:41:49.341Z,101781.45
2018-11-05T07:44:16.847Z,101785.86
2018-11-05T07:46:44.494Z,101784.94
2018-11-05T07:49:11.943Z,101782.81
2018-11-05T07:51:39.448Z,101787.30
2018-11-05T07:54:07.217Z,101793.41
2018-11-05T07:56:34.776Z,101801.27
2018-11-05T07:59:02.267Z,101798.14
2018-11-05T08:01:30.081Z,101803.41
2018-11-05T08:03:57.749Z,101805.16
2018-11-05T08:06:25.189Z,101791.92
2018-11-05T08:08:53.160Z,101804.73
2018-11-05T08:11:20.603Z,101803.88
2018-11-05T08:13:47.992Z,101797.22
2018-11-05T08:16:15.671Z,101805.12
2018-11-05T08:18:43.084Z,101800.68
2018-11-05T08:21:10.548Z,101807.34
2018-11-05T08:23:38.401Z,101808.22
2018-11-05T08:26:06.007Z,101813.07
2018-11-05T08:28:33.478Z,101811.71
2018-11-05T08:31:01.409Z,101822.75
2018-11-05T08:33:28.866Z,101823.63
2018-11-05T08:35:56.357Z,101829.70
2018-11-05T08:38:24.170Z,101827.53
2018-11-05T08:40:51.601Z,101822.16
2018-11-05T08:43:19.095Z,101819.44
2018-11-05T08:45:47.013Z,101825.98
2018-11-05T08:48:14.438Z,101820.24
2018-11-05T08:50:42.020Z,101823.33
2018-11-05T08:53:09.837Z,101827.30
2018-11-05T08:55:37.291Z,101827.75
2018-11-05T08:58:04.840Z,101818.07
2018-11-05T09:00:37.964Z,101816.75
2018-11-05T09:03:05.630Z,101825.06
2018-11-05T09:05:33.061Z,101775.34
2018-11-05T09:08:00.607Z,101817.41
2018-11-05T09:10:28.473Z,101817.00
2018-11-05T09:12:55.723Z,101829.33
2018-11-05T09:15:23.351Z,101831.09
2018-11-05T09:17:51.051Z,101831.86
2018-11-05T09:20:19.103Z,101840.25
2018-11-05T09:22:47.335Z,101840.61
2018-11-05T09:25:15.407Z,101842.34
2018-11-05T09:27:42.948Z,101839.13
2018-11-05T09:30:16.454Z,101836.92
2018-11-05T09:32:44.600Z,101835.56
2018-11-05T09:35:12.111Z,101834.16
2018-11-05T09:37:39.790Z,101836.30
2018-11-05T09:40:09.249Z,101834.48
2018-11-05T09:42:37.045Z,101838.38
2018-11-05T09:45:05.792Z,101848.91
2018-11-05T09:47:33.451Z,101847.98
2018-11-05T09:50:00.892Z,101801.03
2018-11-05T09:52:28.519Z,101851.35
2018-11-05T09:54:56.232Z,101852.56
2018-11-05T09:57:23.706Z,101857.37
2018-11-05T09:59:51.336Z,101858.22
2018-11-05T10:02:18.925Z,101861.23
2018-11-05T10:04:46.597Z,101861.59
2018-11-05T10:07:14.174Z,101856.69
2018-11-05T10:09:42.046Z,101854.00
2018-11-05T10:12:09.471Z,101861.95
2018-11-05T10:14:37.565Z,101859.67
2018-11-05T10:17:05.535Z,101864.92
2018-11-05T10:19:33.055Z,101867.09
2018-11-05T10:22:00.760Z,101866.53
2018-11-05T10:24:28.555Z,101873.97
2018-11-05T10:26:55.885Z,101871.23
2018-11-05T10:29:23.626Z,101870.30
2018-11-05T10:31:51.186Z,101875.05
2018-11-05T10:34:18.861Z,101870.98
2018-11-05T10:36:46.502Z,101874.03
2018-11-05T10:39:14.121Z,101872.66
2018-11-05T10:41:41.554Z,101866.83
2018-11-05T10:44:09.307Z,101862.37
2018-11-05T10:46:36.969Z,101864.58
2018-11-05T10:49:04.526Z,101869.00
2018-11-05T10:51:32.391Z,101867.63
2018-11-05T10:53:59.907Z,101875.14
2018-11-05T10:56:27.339Z,101893.23
2018-11-05T10:58:54.937Z,101878.64
2018-11-05T11:01:27.886Z,101879.57
2018-11-05T11:04:01.275Z,101881.34
2018-11-05T11:06:28.777Z,101881.34
2018-11-05T11:08:56.230Z,101886.61
2018-11-05T11:11:23.945Z,101889.30
2018-11-05T11:13:51.485Z,101883.95
2018-11-05T11:16:18.976Z,101883.06
2018-11-05T11:18:46.489Z,101877.75
2018-11-05T11:21:13.892Z,101875.50
2018-11-05T11:23:41.487Z,101881.25
2018-11-05T11:26:08.999Z,101878.64
2018-11-05T11:28:36.548Z,101879.12
2018-11-05T11:31:04.166Z,101882.17
2018-11-05T11:33:31.720Z,101880.36
2018-11-05T11:35:59.187Z,101874.14
2018-11-05T11:38:26.675Z,101878.07
2018-11-05T11:40:54.339Z,101850.20
2018-11-05T11:43:21.830Z,101876.30
2018-11-05T11:45:49.321Z,101885.59
2018-11-05T11:48:16.951Z,101884.66
2018-11-05T11:50:44.692Z,101888.16
2018-11-05T11:53:12.232Z,101884.17
2018-11-05T11:56:10.678Z,101889.88
2018-11-05T11:58:38.144Z,101850.41
2018-11-05T12:01:06.061Z,101889.88
2018-11-05T12:03:33.568Z,101898.73
2018-11-05T12:06:01.172Z,101897.36
2018-11-05T12:08:28.607Z,101897.31
2018-11-05T12:10:56.570Z,101897.27
2018-11-05T12:13:24.048Z,101904.80
2018-11-05T12:15:51.544Z,101912.75
2018-11-05T12:18:19.127Z,101904.80
2018-11-05T12:20:46.625Z,101902.58
2018-11-05T12:23:14.164Z,101904.35
2018-11-05T12:25:42.127Z,101905.63
2018-11-05T12:28:09.670Z,101910.90
2018-11-05T12:30:37.167Z,101915.72
2018-11-05T12:33:05.701Z,101922.80
2018-11-05T12:35:33.159Z,101908.68
2018-11-05T12:38:00.609Z,101917.49
2018-11-05T12:40:28.693Z,101923.68
2018-11-05T12:42:56.161Z,101922.39
2018-11-05T12:45:23.634Z,101916.64
2018-11-05T12:47:51.506Z,101924.13
2018-11-05T12:50:23.016Z,101925.05
2018-11-05T12:52:51.479Z,101929.44
2018-11-05T12:55:19.279Z,101928.15
2018-11-05T12:57:46.963Z,101929.56
2018-11-05T13:00:16.928Z,101927.83
2018-11-05T13:02:45.258Z,101918.59
2018-11-05T13:05:13.442Z,101917.26
2018-11-05T13:07:41.090Z,101918.50
2018-11-05T13:10:10.306Z,101926.86
2018-11-05T13:12:37.784Z,101928.15
2018-11-05T13:15:05.655Z,101919.74
2018-11-05T13:17:33.734Z,101916.60
2018-11-05T13:20:01.308Z,101922.27
2018-11-05T13:22:28.992Z,101920.54
2018-11-05T13:24:56.730Z,101924.04
2018-11-05T13:27:24.207Z,101920.06
2018-11-05T13:29:51.916Z,101919.66
2018-11-05T13:32:19.548Z,101910.37
2018-11-05T13:34:47.045Z,101911.25
2018-11-05T13:37:14.934Z,101917.00
2018-11-05T13:39:42.570Z,101911.25
2018-11-05T13:42:10.010Z,101915.72
2018-11-05T13:44:38.022Z,101911.37
2018-11-05T13:47:06.322Z,101910.54
2018-11-05T13:49:33.513Z,101906.11
2018-11-05T13:52:01.377Z,101905.19
2018-11-05T13:54:29.499Z,101908.29
2018-11-05T13:56:56.909Z,101916.29
2018-11-05T13:59:24.874Z,101915.49
2018-11-05T14:01:52.944Z,101914.30
2018-11-05T14:04:20.440Z,101913.53
2018-11-05T14:06:48.476Z,101914.02
2018-11-05T14:09:16.570Z,101914.98
2018-11-05T14:11:43.989Z,101915.47
2018-11-05T14:14:11.789Z,101924.80
2018-11-05T14:16:39.698Z,101923.02
2018-11-05T14:19:07.120Z,101927.00
2018-11-05T14:21:34.807Z,101916.43
2018-11-05T14:24:02.376Z,101915.10
2018-11-05T14:26:29.851Z,101912.05
2018-11-05T14:28:57.839Z,101913.90
2018-11-05T14:31:25.118Z,101914.79
2018-11-05T14:33:52.631Z,101909.13
2018-11-05T14:36:20.340Z,101906.52
2018-11-05T14:38:48.086Z,101912.73
2018-11-05T14:41:15.557Z,101915.39
2018-11-05T14:43:43.223Z,101914.11
2018-11-05T14:46:10.837Z,101911.50
2018-11-05T14:48:38.623Z,101912.46
2018-11-05T14:51:06.427Z,101916.48
2018-11-05T14:53:34.014Z,101919.53
2018-11-05T14:56:16.695Z,101919.17
2018-11-05T14:58:44.775Z,101914.34
2018-11-05T15:01:12.287Z,101914.43
2018-11-05T15:03:40.124Z,101924.63
2018-11-05T15:06:07.722Z,101917.67
2018-11-05T15:08:35.307Z,101914.18
2018-11-05T15:11:03.324Z,101916.91
2018-11-05T15:13:31.070Z,101920.56
2018-11-05T15:15:58.558Z,101921.08
2018-11-05T15:18:26.618Z,101919.42
2018-11-05T15:20:54.200Z,101918.66
2018-11-05T15:23:21.672Z,101930.22
2018-11-05T15:25:49.257Z,101929.92
2018-11-05T15:28:16.834Z,101928.70
2018-11-05T15:30:44.264Z,101934.16
2018-11-05T15:33:12.150Z,101936.06
2018-11-05T15:35:39.649Z,101934.84
2018-11-05T15:38:07.100Z,101942.39
2018-11-05T15:40:34.877Z,101925.61
2018-11-05T15:43:02.460Z,101932.67
2018-11-05T15:45:29.910Z,101930.09
2018-11-05T15:47:57.610Z,101927.04
2018-11-05T15:50:25.699Z,101929.69
2018-11-05T15:52:53.439Z,101922.66
2018-11-05T15:55:20.902Z,101927.95
2018-11-05T15:57:48.982Z,101928.41
2018-11-05T16:00:25.063Z,101924.42
2018-11-05T16:02:54.932Z,101914.75
2018-11-05T16:05:22.411Z,101912.55
2018-11-05T16:07:50.170Z,101916.11
2018-11-05T16:10:22.533Z,101930.71
2018-11-05T16:12:50.121Z,101933.80
2018-11-05T16:15:18.105Z,101925.52
2018-11-05T16:17:45.714Z,101934.86
2018-11-05T16:20:15.611Z,101930.92
2018-11-05T16:22:43.617Z,101928.30
2018-11-05T16:25:11.285Z,101937.61
2018-11-05T16:27:38.789Z,101946.88
2018-11-05T16:30:08.896Z,101951.33
2018-11-05T16:32:36.509Z,101960.62
2018-11-05T16:35:04.468Z,101958.89
2018-11-05T16:37:32.073Z,101948.33
2018-11-05T16:39:59.593Z,101948.36
2018-11-05T16:42:27.028Z,101950.12
2018-11-05T16:44:54.611Z,101947.89
2018-11-05T16:47:22.193Z,101946.50
2018-11-05T16:49:49.706Z,101946.47
2018-11-05T16:52:17.662Z,101952.64
2018-11-05T16:54:45.375Z,101955.27
2018-11-05T16:57:12.823Z,101961.84
2018-11-05T16:59:40.648Z,101948.61
2018-11-05T17:02:12.506Z,101953.43
2018-11-05T17:04:39.560Z,101971.49
2018-11-05T17:07:07.286Z,101964.84
2018-11-05T17:09:34.852Z,101970.06
2018-11-05T17:12:02.533Z,101964.33
2018-11-05T17:14:30.355Z,101952.34
2018-11-05T17:16:58.065Z,101965.52
2018-11-05T17:19:25.521Z,101957.06
2018-11-05T17:21:53.108Z,101956.55
2018-11-05T17:24:20.842Z,101959.61
2018-11-05T17:26:48.336Z,101955.09
2018-11-05T17:29:15.977Z,101919.52
2018-11-05T17:31:43.542Z,101965.20
2018-11-05T17:34:11.047Z,101959.43
2018-11-05T17:36:38.652Z,101961.61
2018-11-05T17:39:09.709Z,101954.50
2018-11-05T17:41:37.697Z,101950.09
2018-11-05T17:44:06.181Z,101959.33
2018-11-05T17:46:34.013Z,101967.65
2018-11-05T17:49:01.574Z,101963.64
2018-11-05T17:51:29.070Z,101973.31
2018-11-05T17:53:56.687Z,101968.86
2018-11-05T17:56:24.137Z,101973.72
2018-11-05T17:58:51.733Z,101983.88
2018-11-05T18:01:19.272Z,101983.37
2018-11-05T18:03:46.775Z,101984.62
2018-11-05T18:06:14.598Z,101971.34
2018-11-05T18:08:42.202Z,101977.04
2018-11-05T18:11:09.735Z,101975.20
2018-11-05T18:13:37.374Z,101970.75
2018-11-05T18:16:05.316Z,101968.50
2018-11-05T18:18:33.111Z,101980.39
2018-11-05T18:21:00.899Z,101978.22
2018-11-05T18:23:28.626Z,101978.63
2018-11-05T18:25:56.141Z,101975.53
2018-11-05T18:28:23.872Z,101977.23
2018-11-05T18:30:51.498Z,101979.44
2018-11-05T18:33:18.945Z,101972.77
2018-11-05T18:35:46.515Z,101976.30
2018-11-05T18:38:14.092Z,101978.48
2018-11-05T18:40:41.496Z,101985.07
2018-11-05T18:43:09.647Z,101983.56
2018-11-05T18:45:37.433Z,101985.80
2018-11-05T18:48:04.797Z,101980.09
2018-11-05T18:50:32.534Z,101976.56
2018-11-05T18:53:00.160Z,101973.84
2018-11-05T18:55:27.651Z,101971.52
2018-11-05T18:57:55.211Z,101966.61
2018-11-05T19:00:24.228Z,101971.40
2018-11-05T19:02:52.647Z,101966.02
2018-11-05T19:05:20.941Z,101971.33
2018-11-05T19:07:48.642Z,101971.36
2018-11-05T19:10:16.107Z,101981.08
2018-11-05T19:12:43.676Z,101977.52
2018-11-05T19:15:12.443Z,101974.82
2018-11-05T19:17:40.279Z,101969.44
2018-11-05T19:20:08.497Z,101977.39
2018-11-05T19:22:36.379Z,101983.55
2018-11-05T19:25:04.305Z,101976.95
2018-11-05T19:27:32.083Z,101978.31
2018-11-05T19:29:59.600Z,101968.63
2018-11-05T19:32:27.056Z,101969.55
2018-11-05T19:34:54.692Z,101966.02
2018-11-05T19:37:22.181Z,101967.34
2018-11-05T19:39:49.687Z,101971.77
2018-11-05T19:42:17.363Z,101972.61
2018-11-05T19:44:44.961Z,101980.56
2018-11-05T19:47:12.498Z,101977.06
2018-11-05T19:49:40.193Z,101980.56
2018-11-05T19:52:07.731Z,101977.47
2018-11-05T19:54:35.245Z,101973.09
2018-11-05T19:57:02.817Z,101982.78
2018-11-05T19:59:30.624Z,101982.73
2018-11-05T20:01:58.169Z,101989.37
2018-11-05T20:04:25.767Z,101994.78
2018-11-05T20:06:53.591Z,101989.52
2018-11-05T20:09:21.067Z,101990.00
2018-11-05T20:11:48.828Z,101985.62
2018-11-05T20:14:16.873Z,101982.08
2018-11-05T20:16:44.355Z,101983.89
2018-11-05T20:19:12.192Z,101988.71
2018-11-05T20:21:39.670Z,101987.38
2018-11-05T20:24:07.188Z,101990.52
2018-11-05T20:26:35.109Z,101983.45
2018-11-05T20:29:02.802Z,101996.67
2018-11-05T20:31:30.404Z,101990.88
2018-11-05T20:33:57.932Z,101989.56
2018-11-05T20:36:25.458Z,101985.09
2018-11-05T20:38:52.926Z,101985.98
2018-11-05T20:41:20.552Z,101991.25
2018-11-05T20:43:48.122Z,101987.79
2018-11-05T20:46:15.604Z,101995.27
2018-11-05T20:48:43.293Z,101989.08
2018-11-05T20:51:10.818Z,101988.64
2018-11-05T20:53:38.322Z,101990.88
2018-11-05T20:56:05.931Z,101987.83
2018-11-05T20:58:33.515Z,101982.01
2018-11-05T21:01:01.920Z,101984.25
2018-11-05T21:03:29.482Z,101986.91
2018-11-05T21:05:56.945Z,101993.50
2018-11-05T21:08:24.460Z,101986.87
2018-11-05T21:10:52.111Z,101989.92
2018-11-05T21:13:19.615Z,101985.91
2018-11-05T21:15:47.031Z,101976.19
2018-11-05T21:18:14.570Z,101974.86
2018-11-05T21:20:42.189Z,101966.38
2018-11-05T21:23:09.715Z,101971.12
2018-11-05T21:25:37.330Z,101971.12
2018-11-05T21:28:05.089Z,101981.70
2018-11-05T21:30:32.612Z,101980.73
2018-11-05T21:33:00.601Z,101976.72
2018-11-05T21:35:28.061Z,101981.58
2018-11-05T21:37:55.523Z,101986.41
2018-11-05T21:40:23.089Z,101976.35
2018-11-05T21:42:50.590Z,101978.45
2018-11-05T21:45:18.178Z,101968.28
2018-11-05T21:47:46.140Z,101962.45
2018-11-05T21:50:15.027Z,101965.51
2018-11-05T21:52:43.043Z,101969.48
2018-11-05T21:55:10.725Z,101966.83
2018-11-05T21:57:39.997Z,101975.64
2018-11-05T22:00:10.672Z,101965.91
2018-11-05T22:02:43.911Z,101964.14
2018-11-05T22:05:11.515Z,101974.20
2018-11-05T22:07:39.069Z,101981.30
2018-11-05T22:10:06.752Z,101977.28
2018-11-05T22:12:34.467Z,101972.02
2018-11-05T22:15:02.107Z,101962.94
2018-11-05T22:17:29.680Z,101931.22
2018-11-05T22:19:57.534Z,101970.69
2018-11-05T22:22:25.593Z,101973.34
2018-11-05T22:24:53.265Z,101980.42
2018-11-05T22:27:20.873Z,101973.34
2018-11-05T22:29:48.354Z,101974.16
2018-11-05T22:32:16.357Z,101913.58
2018-11-05T22:34:43.947Z,101968.41
2018-11-05T22:37:11.487Z,101965.30
2018-11-05T22:39:39.335Z,101966.11
2018-11-05T22:42:07.078Z,101963.94
2018-11-05T22:44:34.582Z,101969.24
2018-11-05T22:47:02.411Z,101964.34
2018-11-05T22:49:30.065Z,101960.80
2018-11-05T22:51:57.539Z,101960.77
2018-11-05T22:54:25.653Z,101966.08
2018-11-05T22:56:53.419Z,101958.11
2018-11-05T22:59:20.957Z,101956.34
2018-11-05T23:01:54.692Z,101958.11
2018-11-05T23:04:22.520Z,101965.59
2018-11-05T23:07:04.894Z,101963.81
2018-11-05T23:09:32.533Z,101963.42
2018-11-05T23:12:00.147Z,101964.34
2018-11-05T23:14:28.036Z,101962.66
2018-11-05T23:16:55.808Z,101963.05
2018-11-05T23:19:23.313Z,101965.27
2018-11-05T23:22:22.114Z,101963.42
2018-11-05T23:24:49.639Z,101974.95
2018-11-05T23:27:17.180Z,101960.80
2018-11-05T23:29:45.333Z,101958.67
2018-11-05T23:32:12.917Z,101958.67
2018-11-05T23:34:40.387Z,101950.23
2018-11-05T23:37:08.641Z,101947.09
2018-11-05T23:39:36.139Z,101951.95
2018-11-05T23:42:03.677Z,101948.37
2018-11-05T23:44:31.639Z,101947.05
2018-11-05T23:46:59.168Z,101952.81
2018-11-05T23:49:26.665Z,101964.75
2018-11-05T23:51:54.724Z,101958.11
2018-11-05T23:54:22.124Z,101953.65
2018-11-05T23:56:49.687Z,101949.63
2018-11-05T23:59:17.321Z,101951.31
